sensor_id;sensor_type;location;lat;lon;timestamp;P1;durP1;ratioP1;P2;durP2;ratioP2
11865;SDS011;5992;52.744;6.898;2023-07-13T00:01:01;4.30;;;1.13;;
11865;SDS011;5992;52.744;6.898;2023-07-13T00:04:17;5.27;;;1.60;;
11865;SDS011;5992;52.744;6.898;2023-07-13T00:07:30;2.60;;;1.30;;
11865;SDS011;5992;52.744;6.898;2023-07-13T00:10:57;3.73;;;1.50;;
11865;SDS011;5992;52.744;6.898;2023-07-13T00:13:57;2.80;;;1.50;;
11865;SDS011;5992;52.744;6.898;2023-07-13T00:17:11;4.30;;;1.60;;
11865;SDS011;5992;52.744;6.898;2023-07-13T00:20:13;2.60;;;1.13;;
11865;SDS011;5992;52.744;6.898;2023-07-13T00:23:39;2.70;;;1.90;;
11865;SDS011;5992;52.744;6.898;2023-07-13T00:26:51;8.45;;;1.85;;
11865;SDS011;5992;52.744;6.898;2023-07-13T00:30:16;4.17;;;1.33;;
11865;SDS011;5992;52.744;6.898;2023-07-13T00:33:28;4.57;;;1.47;;
11865;SDS011;5992;52.744;6.898;2023-07-13T00:36:55;2.13;;;1.20;;
11865;SDS011;5992;52.744;6.898;2023-07-13T00:40:09;6.27;;;1.77;;
11865;SDS011;5992;52.744;6.898;2023-07-13T00:43:34;5.50;;;2.25;;
11865;SDS011;5992;52.744;6.898;2023-07-13T00:46:34;3.40;;;1.00;;
11865;SDS011;5992;52.744;6.898;2023-07-13T00:49:48;5.77;;;1.80;;
11865;SDS011;5992;52.744;6.898;2023-07-13T00:52:52;5.30;;;1.87;;
11865;SDS011;5992;52.744;6.898;2023-07-13T00:56:16;4.63;;;1.57;;
11865;SDS011;5992;52.744;6.898;2023-07-13T00:59:28;6.13;;;1.93;;
11865;SDS011;5992;52.744;6.898;2023-07-13T01:02:52;2.90;;;1.50;;
11865;SDS011;5992;52.744;6.898;2023-07-13T01:06:04;4.45;;;1.50;;
11865;SDS011;5992;52.744;6.898;2023-07-13T01:09:32;5.33;;;1.47;;
11865;SDS011;5992;52.744;6.898;2023-07-13T01:12:45;4.23;;;1.67;;
11865;SDS011;5992;52.744;6.898;2023-07-13T01:15:58;3.53;;;1.90;;
11865;SDS011;5992;52.744;6.898;2023-07-13T01:19:12;3.13;;;1.67;;
11865;SDS011;5992;52.744;6.898;2023-07-13T01:22:38;3.07;;;1.87;;
11865;SDS011;5992;52.744;6.898;2023-07-13T01:25:50;11.37;;;2.33;;
11865;SDS011;5992;52.744;6.898;2023-07-13T01:29:14;6.83;;;1.60;;
11865;SDS011;5992;52.744;6.898;2023-07-13T01:32:16;5.67;;;1.90;;
11865;SDS011;5992;52.744;6.898;2023-07-13T01:35:40;7.27;;;2.00;;
11865;SDS011;5992;52.744;6.898;2023-07-13T01:38:42;4.23;;;1.57;;
11865;SDS011;5992;52.744;6.898;2023-07-13T01:42:07;5.70;;;1.80;;
11865;SDS011;5992;52.744;6.898;2023-07-13T01:45:19;7.03;;;2.00;;
11865;SDS011;5992;52.744;6.898;2023-07-13T01:48:43;6.40;;;2.00;;
11865;SDS011;5992;52.744;6.898;2023-07-13T01:51:44;9.17;;;3.23;;
11865;SDS011;5992;52.744;6.898;2023-07-13T01:54:59;4.53;;;1.60;;
11865;SDS011;5992;52.744;6.898;2023-07-13T01:58:11;4.90;;;2.20;;
11865;SDS011;5992;52.744;6.898;2023-07-13T02:01:24;5.65;;;1.95;;
11865;SDS011;5992;52.744;6.898;2023-07-13T02:04:37;4.40;;;1.80;;
11865;SDS011;5992;52.744;6.898;2023-07-13T02:07:38;5.43;;;1.83;;
11865;SDS011;5992;52.744;6.898;2023-07-13T02:11:05;9.23;;;1.97;;
11865;SDS011;5992;52.744;6.898;2023-07-13T02:14:17;6.40;;;1.63;;
11865;SDS011;5992;52.744;6.898;2023-07-13T02:17:31;6.60;;;1.90;;
11865;SDS011;5992;52.744;6.898;2023-07-13T02:20:32;8.23;;;2.47;;
11865;SDS011;5992;52.744;6.898;2023-07-13T02:23:44;6.50;;;1.83;;
11865;SDS011;5992;52.744;6.898;2023-07-13T02:26:46;6.35;;;2.00;;
11865;SDS011;5992;52.744;6.898;2023-07-13T02:30:11;5.83;;;2.37;;
11865;SDS011;5992;52.744;6.898;2023-07-13T02:33:12;2.90;;;1.67;;
11865;SDS011;5992;52.744;6.898;2023-07-13T02:36:26;7.27;;;2.57;;
11865;SDS011;5992;52.744;6.898;2023-07-13T02:39:27;6.97;;;2.00;;
11865;SDS011;5992;52.744;6.898;2023-07-13T02:42:42;3.27;;;1.77;;
11865;SDS011;5992;52.744;6.898;2023-07-13T02:46:07;4.75;;;1.75;;
11865;SDS011;5992;52.744;6.898;2023-07-13T02:49:21;5.00;;;1.60;;
11865;SDS011;5992;52.744;6.898;2023-07-13T02:52:33;4.63;;;2.00;;
11865;SDS011;5992;52.744;6.898;2023-07-13T02:55:47;8.80;;;2.47;;
11865;SDS011;5992;52.744;6.898;2023-07-13T02:58:50;5.20;;;2.03;;
11865;SDS011;5992;52.744;6.898;2023-07-13T03:02:15;2.15;;;1.75;;
11865;SDS011;5992;52.744;6.898;2023-07-13T03:05:27;4.50;;;1.70;;
11865;SDS011;5992;52.744;6.898;2023-07-13T03:08:42;5.87;;;2.80;;
11865;SDS011;5992;52.744;6.898;2023-07-13T03:12:07;6.00;;;1.90;;
11865;SDS011;5992;52.744;6.898;2023-07-13T03:15:22;5.60;;;2.40;;
11865;SDS011;5992;52.744;6.898;2023-07-13T03:18:47;5.50;;;2.40;;
11865;SDS011;5992;52.744;6.898;2023-07-13T03:22:11;3.30;;;1.80;;
11865;SDS011;5992;52.744;6.898;2023-07-13T03:25:24;6.30;;;2.13;;
11865;SDS011;5992;52.744;6.898;2023-07-13T03:28:38;8.83;;;2.70;;
11865;SDS011;5992;52.744;6.898;2023-07-13T03:32:03;4.77;;;2.13;;
11865;SDS011;5992;52.744;6.898;2023-07-13T03:35:28;8.33;;;2.43;;
11865;SDS011;5992;52.744;6.898;2023-07-13T03:38:40;9.93;;;2.43;;
11865;SDS011;5992;52.744;6.898;2023-07-13T03:41:53;3.00;;;1.90;;
11865;SDS011;5992;52.744;6.898;2023-07-13T03:45:06;6.20;;;2.00;;
11865;SDS011;5992;52.744;6.898;2023-07-13T03:48:20;4.07;;;1.70;;
11865;SDS011;5992;52.744;6.898;2023-07-13T03:51:45;5.47;;;2.13;;
11865;SDS011;5992;52.744;6.898;2023-07-13T03:54:59;3.10;;;2.07;;
11865;SDS011;5992;52.744;6.898;2023-07-13T03:58:25;9.40;;;2.67;;
11865;SDS011;5992;52.744;6.898;2023-07-13T04:01:50;3.33;;;1.80;;
11865;SDS011;5992;52.744;6.898;2023-07-13T04:05:05;8.15;;;2.40;;
11865;SDS011;5992;52.744;6.898;2023-07-13T04:08:29;7.40;;;2.27;;
11865;SDS011;5992;52.744;6.898;2023-07-13T04:11:54;5.80;;;1.70;;
11865;SDS011;5992;52.744;6.898;2023-07-13T04:14:54;4.57;;;2.63;;
11865;SDS011;5992;52.744;6.898;2023-07-13T04:18:07;8.27;;;2.87;;
11865;SDS011;5992;52.744;6.898;2023-07-13T04:21:09;8.27;;;2.20;;
11865;SDS011;5992;52.744;6.898;2023-07-13T04:24:35;8.00;;;2.40;;
11865;SDS011;5992;52.744;6.898;2023-07-13T04:27:36;3.57;;;1.67;;
11865;SDS011;5992;52.744;6.898;2023-07-13T04:30:49;5.23;;;1.90;;
11865;SDS011;5992;52.744;6.898;2023-07-13T04:34:01;7.63;;;1.97;;
11865;SDS011;5992;52.744;6.898;2023-07-13T04:37:15;7.47;;;1.60;;
11865;SDS011;5992;52.744;6.898;2023-07-13T04:40:29;7.03;;;1.90;;
11865;SDS011;5992;52.744;6.898;2023-07-13T04:43:54;4.67;;;2.07;;
11865;SDS011;5992;52.744;6.898;2023-07-13T04:46:54;1.70;;;1.50;;
11865;SDS011;5992;52.744;6.898;2023-07-13T04:50:08;5.20;;;1.90;;
11865;SDS011;5992;52.744;6.898;2023-07-13T04:53:10;6.60;;;2.30;;
11865;SDS011;5992;52.744;6.898;2023-07-13T04:56:36;5.77;;;2.17;;
11865;SDS011;5992;52.744;6.898;2023-07-13T04:59:37;4.70;;;1.93;;
11865;SDS011;5992;52.744;6.898;2023-07-13T05:02:50;5.80;;;2.33;;
11865;SDS011;5992;52.744;6.898;2023-07-13T05:05:54;5.93;;;2.63;;
11865;SDS011;5992;52.744;6.898;2023-07-13T05:09:21;5.90;;;1.95;;
11865;SDS011;5992;52.744;6.898;2023-07-13T05:12:34;7.33;;;2.17;;
11865;SDS011;5992;52.744;6.898;2023-07-13T05:15:47;4.60;;;2.13;;
11865;SDS011;5992;52.744;6.898;2023-07-13T05:18:59;11.07;;;3.20;;
11865;SDS011;5992;52.744;6.898;2023-07-13T05:22:13;6.23;;;3.27;;
11865;SDS011;5992;52.744;6.898;2023-07-13T05:25:15;6.07;;;2.20;;
11865;SDS011;5992;52.744;6.898;2023-07-13T05:28:41;4.27;;;2.20;;
11865;SDS011;5992;52.744;6.898;2023-07-13T05:31:42;7.80;;;2.87;;
11865;SDS011;5992;52.744;6.898;2023-07-13T05:34:56;4.63;;;1.67;;
11865;SDS011;5992;52.744;6.898;2023-07-13T05:37:56;5.33;;;1.83;;
11865;SDS011;5992;52.744;6.898;2023-07-13T05:41:10;6.57;;;1.73;;
11865;SDS011;5992;52.744;6.898;2023-07-13T05:44:23;6.43;;;2.27;;
11865;SDS011;5992;52.744;6.898;2023-07-13T05:47:35;4.53;;;2.20;;
11865;SDS011;5992;52.744;6.898;2023-07-13T05:50:36;7.37;;;2.60;;
11865;SDS011;5992;52.744;6.898;2023-07-13T05:54:01;5.77;;;2.00;;
11865;SDS011;5992;52.744;6.898;2023-07-13T05:57:02;10.07;;;2.77;;
11865;SDS011;5992;52.744;6.898;2023-07-13T06:00:28;7.63;;;2.07;;
11865;SDS011;5992;52.744;6.898;2023-07-13T06:03:52;5.00;;;2.35;;
11865;SDS011;5992;52.744;6.898;2023-07-13T06:06:52;6.50;;;2.20;;
11865;SDS011;5992;52.744;6.898;2023-07-13T06:10:17;6.53;;;2.60;;
11865;SDS011;5992;52.744;6.898;2023-07-13T06:13:19;6.03;;;2.60;;
11865;SDS011;5992;52.744;6.898;2023-07-13T06:16:45;3.90;;;2.20;;
11865;SDS011;5992;52.744;6.898;2023-07-13T06:19:57;6.37;;;2.50;;
11865;SDS011;5992;52.744;6.898;2023-07-13T06:23:11;3.77;;;1.87;;
11865;SDS011;5992;52.744;6.898;2023-07-13T06:26:12;6.27;;;2.37;;
11865;SDS011;5992;52.744;6.898;2023-07-13T06:29:26;8.80;;;2.30;;
11865;SDS011;5992;52.744;6.898;2023-07-13T06:32:39;3.47;;;1.90;;
11865;SDS011;5992;52.744;6.898;2023-07-13T06:35:52;8.73;;;2.33;;
11865;SDS011;5992;52.744;6.898;2023-07-13T06:39:04;8.65;;;2.45;;
11865;SDS011;5992;52.744;6.898;2023-07-13T06:42:29;7.67;;;2.00;;
11865;SDS011;5992;52.744;6.898;2023-07-13T06:45:32;8.37;;;2.23;;
11865;SDS011;5992;52.744;6.898;2023-07-13T06:48:58;4.67;;;1.87;;
11865;SDS011;5992;52.744;6.898;2023-07-13T06:51:59;7.27;;;2.10;;
11865;SDS011;5992;52.744;6.898;2023-07-13T06:55:12;7.10;;;1.80;;
11865;SDS011;5992;52.744;6.898;2023-07-13T06:58:14;5.45;;;2.00;;
11865;SDS011;5992;52.744;6.898;2023-07-13T07:01:40;6.00;;;2.20;;
11865;SDS011;5992;52.744;6.898;2023-07-13T07:04:52;2.60;;;1.63;;
11865;SDS011;5992;52.744;6.898;2023-07-13T07:08:06;4.53;;;2.60;;
11865;SDS011;5992;52.744;6.898;2023-07-13T07:11:19;8.60;;;2.95;;
11865;SDS011;5992;52.744;6.898;2023-07-13T07:14:42;8.33;;;2.23;;
11865;SDS011;5992;52.744;6.898;2023-07-13T07:17:44;3.80;;;1.70;;
11865;SDS011;5992;52.744;6.898;2023-07-13T07:21:09;4.93;;;1.93;;
11865;SDS011;5992;52.744;6.898;2023-07-13T07:24:22;6.07;;;2.03;;
11865;SDS011;5992;52.744;6.898;2023-07-13T07:27:36;5.87;;;2.70;;
11865;SDS011;5992;52.744;6.898;2023-07-13T07:30:41;4.90;;;2.13;;
11865;SDS011;5992;52.744;6.898;2023-07-13T07:34:04;4.40;;;2.40;;
11865;SDS011;5992;52.744;6.898;2023-07-13T07:37:15;4.60;;;2.37;;
11865;SDS011;5992;52.744;6.898;2023-07-13T07:40:40;5.40;;;2.10;;
11865;SDS011;5992;52.744;6.898;2023-07-13T07:43:51;7.53;;;2.47;;
11865;SDS011;5992;52.744;6.898;2023-07-13T07:47:05;5.87;;;2.50;;
11865;SDS011;5992;52.744;6.898;2023-07-13T07:50:19;5.53;;;1.80;;
11865;SDS011;5992;52.744;6.898;2023-07-13T07:53:44;6.95;;;2.65;;
11865;SDS011;5992;52.744;6.898;2023-07-13T07:56:44;5.40;;;2.87;;
11865;SDS011;5992;52.744;6.898;2023-07-13T07:59:57;3.93;;;1.80;;
11865;SDS011;5992;52.744;6.898;2023-07-13T08:03:21;7.85;;;2.85;;
11865;SDS011;5992;52.744;6.898;2023-07-13T08:06:24;6.17;;;2.00;;
11865;SDS011;5992;52.744;6.898;2023-07-13T08:09:51;5.63;;;2.20;;
11865;SDS011;5992;52.744;6.898;2023-07-13T08:13:03;7.30;;;2.10;;
11865;SDS011;5992;52.744;6.898;2023-07-13T08:16:17;4.83;;;2.10;;
11865;SDS011;5992;52.744;6.898;2023-07-13T08:19:17;6.37;;;2.20;;
11865;SDS011;5992;52.744;6.898;2023-07-13T08:22:32;6.35;;;2.20;;
11865;SDS011;5992;52.744;6.898;2023-07-13T08:25:50;6.23;;;2.47;;
11865;SDS011;5992;52.744;6.898;2023-07-13T08:29:14;6.60;;;2.43;;
11865;SDS011;5992;52.744;6.898;2023-07-13T08:32:14;7.43;;;3.33;;
11865;SDS011;5992;52.744;6.898;2023-07-13T08:35:39;8.07;;;2.83;;
11865;SDS011;5992;52.744;6.898;2023-07-13T08:38:42;3.20;;;2.17;;
11865;SDS011;5992;52.744;6.898;2023-07-13T08:42:11;5.87;;;2.47;;
11865;SDS011;5992;52.744;6.898;2023-07-13T08:45:20;5.33;;;2.63;;
11865;SDS011;5992;52.744;6.898;2023-07-13T08:48:45;8.20;;;3.27;;
11865;SDS011;5992;52.744;6.898;2023-07-13T08:51:57;8.93;;;3.30;;
11865;SDS011;5992;52.744;6.898;2023-07-13T08:55:24;9.80;;;3.05;;
11865;SDS011;5992;52.744;6.898;2023-07-13T08:58:34;6.85;;;2.50;;
11865;SDS011;5992;52.744;6.898;2023-07-13T09:02:10;7.05;;;3.35;;
11865;SDS011;5992;52.744;6.898;2023-07-13T09:05:22;10.83;;;3.73;;
11865;SDS011;5992;52.744;6.898;2023-07-13T09:08:51;6.87;;;3.23;;
11865;SDS011;5992;52.744;6.898;2023-07-13T09:12:05;5.20;;;2.35;;
11865;SDS011;5992;52.744;6.898;2023-07-13T09:15:29;8.25;;;3.00;;
11865;SDS011;5992;52.744;6.898;2023-07-13T09:18:41;5.45;;;2.80;;
11865;SDS011;5992;52.744;6.898;2023-07-13T09:22:04;9.45;;;3.65;;
11865;SDS011;5992;52.744;6.898;2023-07-13T09:25:20;5.13;;;2.80;;
11865;SDS011;5992;52.744;6.898;2023-07-13T09:28:46;3.40;;;2.50;;
11865;SDS011;5992;52.744;6.898;2023-07-13T09:31:59;5.90;;;2.90;;
11865;SDS011;5992;52.744;6.898;2023-07-13T09:35:25;4.03;;;2.13;;
11865;SDS011;5992;52.744;6.898;2023-07-13T09:38:37;6.80;;;2.73;;
11865;SDS011;5992;52.744;6.898;2023-07-13T09:42:01;9.27;;;2.83;;
11865;SDS011;5992;52.744;6.898;2023-07-13T09:45:14;4.50;;;1.70;;
11865;SDS011;5992;52.744;6.898;2023-07-13T09:48:40;3.15;;;1.60;;
11865;SDS011;5992;52.744;6.898;2023-07-13T09:52:05;3.50;;;1.17;;
11865;SDS011;5992;52.744;6.898;2023-07-13T09:55:30;1.10;;;0.90;;
11865;SDS011;5992;52.744;6.898;2023-07-13T09:58:42;1.83;;;1.03;;
11865;SDS011;5992;52.744;6.898;2023-07-13T10:05:40;1.47;;;0.80;;
11865;SDS011;5992;52.744;6.898;2023-07-13T10:08:55;1.03;;;0.77;;
11865;SDS011;5992;52.744;6.898;2023-07-13T10:12:16;1.30;;;1.00;;
11865;SDS011;5992;52.744;6.898;2023-07-13T10:15:17;0.65;;;0.65;;
11865;SDS011;5992;52.744;6.898;2023-07-13T10:18:43;0.75;;;0.75;;
11865;SDS011;5992;52.744;6.898;2023-07-13T10:21:55;0.95;;;0.85;;
11865;SDS011;5992;52.744;6.898;2023-07-13T10:25:21;1.10;;;0.97;;
11865;SDS011;5992;52.744;6.898;2023-07-13T10:28:34;2.63;;;1.00;;
11865;SDS011;5992;52.744;6.898;2023-07-13T10:31:58;0.70;;;0.70;;
11865;SDS011;5992;52.744;6.898;2023-07-13T10:34:58;1.00;;;0.80;;
11865;SDS011;5992;52.744;6.898;2023-07-13T10:38:13;1.25;;;1.00;;
11865;SDS011;5992;52.744;6.898;2023-07-13T10:41:25;1.70;;;1.30;;
11865;SDS011;5992;52.744;6.898;2023-07-13T10:44:50;1.80;;;1.40;;
11865;SDS011;5992;52.744;6.898;2023-07-13T10:47:51;1.27;;;1.17;;
11865;SDS011;5992;52.744;6.898;2023-07-13T10:51:14;2.67;;;1.23;;
11865;SDS011;5992;52.744;6.898;2023-07-13T10:54:30;4.47;;;2.03;;
11865;SDS011;5992;52.744;6.898;2023-07-13T10:57:53;1.93;;;1.67;;
11865;SDS011;5992;52.744;6.898;2023-07-13T11:01:08;4.10;;;2.15;;
11865;SDS011;5992;52.744;6.898;2023-07-13T11:04:39;4.90;;;2.50;;
11865;SDS011;5992;52.744;6.898;2023-07-13T11:07:52;3.73;;;2.50;;
11865;SDS011;5992;52.744;6.898;2023-07-13T11:14:36;6.10;;;2.85;;
11865;SDS011;5992;52.744;6.898;2023-07-13T11:18:04;4.55;;;2.00;;
11865;SDS011;5992;52.744;6.898;2023-07-13T11:21:20;8.13;;;3.37;;
11865;SDS011;5992;52.744;6.898;2023-07-13T11:24:56;5.53;;;2.60;;
11865;SDS011;5992;52.744;6.898;2023-07-13T11:28:14;3.53;;;2.47;;
11865;SDS011;5992;52.744;6.898;2023-07-13T11:31:40;5.60;;;2.37;;
11865;SDS011;5992;52.744;6.898;2023-07-13T11:34:53;3.90;;;1.97;;
11865;SDS011;5992;52.744;6.898;2023-07-13T11:38:19;1.83;;;1.60;;
11865;SDS011;5992;52.744;6.898;2023-07-13T11:41:30;2.25;;;1.45;;
11865;SDS011;5992;52.744;6.898;2023-07-13T11:44:55;3.00;;;1.50;;
11865;SDS011;5992;52.744;6.898;2023-07-13T11:47:58;4.33;;;1.50;;
11865;SDS011;5992;52.744;6.898;2023-07-13T11:51:25;2.93;;;1.50;;
11865;SDS011;5992;52.744;6.898;2023-07-13T11:54:42;3.03;;;1.57;;
11865;SDS011;5992;52.744;6.898;2023-07-13T11:58:07;1.77;;;1.67;;
11865;SDS011;5992;52.744;6.898;2023-07-13T12:01:20;1.37;;;1.17;;
11865;SDS011;5992;52.744;6.898;2023-07-13T12:04:46;1.47;;;1.37;;
11865;SDS011;5992;52.744;6.898;2023-07-13T12:07:59;4.43;;;1.60;;
11865;SDS011;5992;52.744;6.898;2023-07-13T12:11:23;1.77;;;1.40;;
11865;SDS011;5992;52.744;6.898;2023-07-13T12:14:36;2.23;;;1.60;;
11865;SDS011;5992;52.744;6.898;2023-07-13T12:17:49;3.47;;;1.90;;
11865;SDS011;5992;52.744;6.898;2023-07-13T12:21:02;2.43;;;2.07;;
11865;SDS011;5992;52.744;6.898;2023-07-13T12:24:27;2.60;;;1.80;;
11865;SDS011;5992;52.744;6.898;2023-07-13T12:27:39;2.77;;;1.60;;
11865;SDS011;5992;52.744;6.898;2023-07-13T12:30:53;4.80;;;2.40;;
11865;SDS011;5992;52.744;6.898;2023-07-13T12:34:07;2.80;;;2.20;;
11865;SDS011;5992;52.744;6.898;2023-07-13T12:37:35;2.50;;;2.00;;
11865;SDS011;5992;52.744;6.898;2023-07-13T12:40:48;2.90;;;2.10;;
11865;SDS011;5992;52.744;6.898;2023-07-13T12:44:14;2.60;;;1.90;;
11865;SDS011;5992;52.744;6.898;2023-07-13T12:47:25;5.65;;;2.50;;
11865;SDS011;5992;52.744;6.898;2023-07-13T12:50:50;4.87;;;2.30;;
11865;SDS011;5992;52.744;6.898;2023-07-13T12:53:56;5.47;;;2.50;;
11865;SDS011;5992;52.744;6.898;2023-07-13T12:57:20;3.10;;;1.77;;
11865;SDS011;5992;52.744;6.898;2023-07-13T13:00:22;4.47;;;2.03;;
11865;SDS011;5992;52.744;6.898;2023-07-13T13:03:46;6.23;;;3.30;;
11865;SDS011;5992;52.744;6.898;2023-07-13T13:07:00;5.07;;;2.60;;
11865;SDS011;5992;52.744;6.898;2023-07-13T13:10:27;5.23;;;2.40;;
11865;SDS011;5992;52.744;6.898;2023-07-13T13:13:39;3.07;;;2.13;;
11865;SDS011;5992;52.744;6.898;2023-07-13T13:16:53;2.13;;;1.60;;
11865;SDS011;5992;52.744;6.898;2023-07-13T13:20:11;3.23;;;2.00;;
11865;SDS011;5992;52.744;6.898;2023-07-13T13:23:36;3.07;;;1.87;;
11865;SDS011;5992;52.744;6.898;2023-07-13T13:26:51;2.40;;;1.60;;
11865;SDS011;5992;52.744;6.898;2023-07-13T13:30:17;3.53;;;1.90;;
11865;SDS011;5992;52.744;6.898;2023-07-13T13:33:28;3.10;;;1.50;;
11865;SDS011;5992;52.744;6.898;2023-07-13T13:36:41;2.20;;;1.25;;
11865;SDS011;5992;52.744;6.898;2023-07-13T13:39:53;2.33;;;1.30;;
11865;SDS011;5992;52.744;6.898;2023-07-13T13:46:27;1.87;;;1.30;;
11865;SDS011;5992;52.744;6.898;2023-07-13T13:49:52;3.93;;;1.47;;
11865;SDS011;5992;52.744;6.898;2023-07-13T13:52:53;4.73;;;1.47;;
11865;SDS011;5992;52.744;6.898;2023-07-13T13:56:07;3.65;;;1.30;;
11865;SDS011;5992;52.744;6.898;2023-07-13T13:59:18;2.67;;;1.10;;
11865;SDS011;5992;52.744;6.898;2023-07-13T14:02:45;4.30;;;1.40;;
11865;SDS011;5992;52.744;6.898;2023-07-13T14:06:11;8.05;;;1.75;;
11865;SDS011;5992;52.744;6.898;2023-07-13T14:09:22;4.10;;;1.93;;
11865;SDS011;5992;52.744;6.898;2023-07-13T14:12:34;1.20;;;1.10;;
11865;SDS011;5992;52.744;6.898;2023-07-13T14:15:35;3.57;;;1.40;;
11865;SDS011;5992;52.744;6.898;2023-07-13T14:18:50;1.70;;;1.27;;
11865;SDS011;5992;52.744;6.898;2023-07-13T14:22:03;2.37;;;0.97;;
11865;SDS011;5992;52.744;6.898;2023-07-13T14:25:17;3.03;;;1.33;;
11865;SDS011;5992;52.744;6.898;2023-07-13T14:28:28;2.27;;;1.20;;
11865;SDS011;5992;52.744;6.898;2023-07-13T14:31:42;1.23;;;0.97;;
11865;SDS011;5992;52.744;6.898;2023-07-13T14:34:55;1.00;;;1.00;;
11865;SDS011;5992;52.744;6.898;2023-07-13T14:38:20;2.60;;;1.33;;
11865;SDS011;5992;52.744;6.898;2023-07-13T14:41:33;1.87;;;0.93;;
11865;SDS011;5992;52.744;6.898;2023-07-13T14:44:45;1.03;;;0.80;;
11865;SDS011;5992;52.744;6.898;2023-07-13T14:47:45;1.57;;;1.20;;
11865;SDS011;5992;52.744;6.898;2023-07-13T14:51:10;1.90;;;1.33;;
11865;SDS011;5992;52.744;6.898;2023-07-13T14:54:23;1.10;;;1.00;;
11865;SDS011;5992;52.744;6.898;2023-07-13T14:57:36;2.50;;;1.43;;
11865;SDS011;5992;52.744;6.898;2023-07-13T15:00:37;1.57;;;1.47;;
11865;SDS011;5992;52.744;6.898;2023-07-13T15:03:51;1.00;;;0.80;;
11865;SDS011;5992;52.744;6.898;2023-07-13T15:07:05;2.10;;;0.97;;
11865;SDS011;5992;52.744;6.898;2023-07-13T15:10:30;1.03;;;1.00;;
11865;SDS011;5992;52.744;6.898;2023-07-13T15:13:42;1.60;;;1.20;;
11865;SDS011;5992;52.744;6.898;2023-07-13T15:17:09;1.50;;;1.20;;
11865;SDS011;5992;52.744;6.898;2023-07-13T15:20:21;0.87;;;0.87;;
11865;SDS011;5992;52.744;6.898;2023-07-13T15:23:46;3.43;;;1.50;;
11865;SDS011;5992;52.744;6.898;2023-07-13T15:26:59;3.77;;;1.47;;
11865;SDS011;5992;52.744;6.898;2023-07-13T15:30:12;3.60;;;1.70;;
11865;SDS011;5992;52.744;6.898;2023-07-13T15:33:26;1.85;;;1.50;;
11865;SDS011;5992;52.744;6.898;2023-07-13T15:36:50;2.50;;;1.25;;
11865;SDS011;5992;52.744;6.898;2023-07-13T15:39:52;2.33;;;1.20;;
11865;SDS011;5992;52.744;6.898;2023-07-13T15:43:18;1.57;;;1.30;;
11865;SDS011;5992;52.744;6.898;2023-07-13T15:46:30;2.47;;;1.37;;
11865;SDS011;5992;52.744;6.898;2023-07-13T15:49:44;1.57;;;1.00;;
11865;SDS011;5992;52.744;6.898;2023-07-13T15:52:46;2.95;;;1.25;;
11865;SDS011;5992;52.744;6.898;2023-07-13T15:56:21;2.30;;;1.33;;
11865;SDS011;5992;52.744;6.898;2023-07-13T15:59:33;1.77;;;1.40;;
11865;SDS011;5992;52.744;6.898;2023-07-13T16:02:46;1.67;;;1.23;;
11865;SDS011;5992;52.744;6.898;2023-07-13T16:06:00;1.53;;;1.20;;
11865;SDS011;5992;52.744;6.898;2023-07-13T16:09:01;4.90;;;1.40;;
11865;SDS011;5992;52.744;6.898;2023-07-13T16:12:27;1.60;;;1.30;;
11865;SDS011;5992;52.744;6.898;2023-07-13T16:15:40;3.13;;;1.23;;
11865;SDS011;5992;52.744;6.898;2023-07-13T16:18:53;2.70;;;1.10;;
11865;SDS011;5992;52.744;6.898;2023-07-13T16:21:54;2.63;;;1.50;;
11865;SDS011;5992;52.744;6.898;2023-07-13T16:25:19;1.53;;;1.43;;
11865;SDS011;5992;52.744;6.898;2023-07-13T16:28:32;1.87;;;1.10;;
11865;SDS011;5992;52.744;6.898;2023-07-13T16:31:56;2.43;;;1.50;;
11865;SDS011;5992;52.744;6.898;2023-07-13T16:35:08;3.20;;;1.50;;
11865;SDS011;5992;52.744;6.898;2023-07-13T16:38:33;2.55;;;1.60;;
11865;SDS011;5992;52.744;6.898;2023-07-13T16:41:34;3.55;;;1.20;;
11865;SDS011;5992;52.744;6.898;2023-07-13T16:44:49;2.67;;;1.30;;
11865;SDS011;5992;52.744;6.898;2023-07-13T16:48:02;2.37;;;1.17;;
11865;SDS011;5992;52.744;6.898;2023-07-13T16:51:28;1.53;;;1.43;;
11865;SDS011;5992;52.744;6.898;2023-07-13T16:54:29;3.00;;;1.80;;
11865;SDS011;5992;52.744;6.898;2023-07-13T16:57:54;2.25;;;1.45;;
11865;SDS011;5992;52.744;6.898;2023-07-13T17:01:07;2.50;;;1.30;;
11865;SDS011;5992;52.744;6.898;2023-07-13T17:04:34;2.83;;;1.57;;
11865;SDS011;5992;52.744;6.898;2023-07-13T17:07:35;2.33;;;1.33;;
11865;SDS011;5992;52.744;6.898;2023-07-13T17:11:00;3.63;;;1.90;;
11865;SDS011;5992;52.744;6.898;2023-07-13T17:14:13;1.60;;;1.50;;
11865;SDS011;5992;52.744;6.898;2023-07-13T17:17:39;1.70;;;1.27;;
11865;SDS011;5992;52.744;6.898;2023-07-13T17:20:52;3.00;;;1.43;;
11865;SDS011;5992;52.744;6.898;2023-07-13T17:24:16;2.20;;;1.40;;
11865;SDS011;5992;52.744;6.898;2023-07-13T17:27:28;3.07;;;1.90;;
11865;SDS011;5992;52.744;6.898;2023-07-13T17:30:41;1.70;;;1.60;;
11865;SDS011;5992;52.744;6.898;2023-07-13T17:33:54;2.50;;;1.60;;
11865;SDS011;5992;52.744;6.898;2023-07-13T17:37:19;3.80;;;1.60;;
11865;SDS011;5992;52.744;6.898;2023-07-13T17:40:20;2.63;;;1.63;;
11865;SDS011;5992;52.744;6.898;2023-07-13T17:43:45;3.37;;;1.77;;
11865;SDS011;5992;52.744;6.898;2023-07-13T17:46:57;2.53;;;1.40;;
11865;SDS011;5992;52.744;6.898;2023-07-13T17:50:25;1.70;;;1.13;;
11865;SDS011;5992;52.744;6.898;2023-07-13T17:53:36;4.87;;;1.70;;
11865;SDS011;5992;52.744;6.898;2023-07-13T17:56:48;2.70;;;1.43;;
11865;SDS011;5992;52.744;6.898;2023-07-13T17:59:49;5.20;;;1.70;;
11865;SDS011;5992;52.744;6.898;2023-07-13T18:03:03;3.80;;;1.35;;
11865;SDS011;5992;52.744;6.898;2023-07-13T18:06:17;3.00;;;1.80;;
11865;SDS011;5992;52.744;6.898;2023-07-13T18:09:42;3.57;;;1.60;;
11865;SDS011;5992;52.744;6.898;2023-07-13T18:12:54;2.13;;;1.37;;
11865;SDS011;5992;52.744;6.898;2023-07-13T18:16:13;3.13;;;1.90;;
11865;SDS011;5992;52.744;6.898;2023-07-13T18:19:29;4.05;;;1.65;;
11865;SDS011;5992;52.744;6.898;2023-07-13T18:22:54;5.20;;;1.60;;
11865;SDS011;5992;52.744;6.898;2023-07-13T18:26:08;3.43;;;1.93;;
11865;SDS011;5992;52.744;6.898;2023-07-13T18:29:33;3.33;;;1.73;;
11865;SDS011;5992;52.744;6.898;2023-07-13T18:32:46;2.13;;;1.93;;
11865;SDS011;5992;52.744;6.898;2023-07-13T18:36:10;3.60;;;2.15;;
11865;SDS011;5992;52.744;6.898;2023-07-13T18:39:23;2.57;;;1.63;;
11865;SDS011;5992;52.744;6.898;2023-07-13T18:42:48;1.83;;;1.60;;
11865;SDS011;5992;52.744;6.898;2023-07-13T18:45:49;3.80;;;1.73;;
11865;SDS011;5992;52.744;6.898;2023-07-13T18:49:14;3.67;;;2.20;;
11865;SDS011;5992;52.744;6.898;2023-07-13T18:52:16;3.57;;;1.97;;
11865;SDS011;5992;52.744;6.898;2023-07-13T18:55:43;1.80;;;1.43;;
11865;SDS011;5992;52.744;6.898;2023-07-13T18:58:55;4.73;;;2.23;;
11865;SDS011;5992;52.744;6.898;2023-07-13T19:02:10;1.67;;;1.50;;
11865;SDS011;5992;52.744;6.898;2023-07-13T19:05:23;5.23;;;1.87;;
11865;SDS011;5992;52.744;6.898;2023-07-13T19:08:47;2.85;;;1.80;;
11865;SDS011;5992;52.744;6.898;2023-07-13T19:12:01;6.27;;;2.37;;
11865;SDS011;5992;52.744;6.898;2023-07-13T19:15:26;3.63;;;1.60;;
11865;SDS011;5992;52.744;6.898;2023-07-13T19:18:37;2.90;;;1.63;;
11865;SDS011;5992;52.744;6.898;2023-07-13T19:22:03;2.07;;;1.50;;
11865;SDS011;5992;52.744;6.898;2023-07-13T19:25:15;3.25;;;1.90;;
11865;SDS011;5992;52.744;6.898;2023-07-13T19:28:41;3.03;;;2.20;;
11865;SDS011;5992;52.744;6.898;2023-07-13T19:31:52;2.80;;;2.00;;
11865;SDS011;5992;52.744;6.898;2023-07-13T19:35:07;3.37;;;1.87;;
11865;SDS011;5992;52.744;6.898;2023-07-13T19:38:20;3.83;;;2.17;;
11865;SDS011;5992;52.744;6.898;2023-07-13T19:41:42;3.03;;;1.97;;
11865;SDS011;5992;52.744;6.898;2023-07-13T19:44:45;2.65;;;1.75;;
11865;SDS011;5992;52.744;6.898;2023-07-13T19:48:09;2.20;;;2.00;;
11865;SDS011;5992;52.744;6.898;2023-07-13T19:51:11;4.30;;;2.10;;
11865;SDS011;5992;52.744;6.898;2023-07-13T19:54:37;2.20;;;2.00;;
11865;SDS011;5992;52.744;6.898;2023-07-13T19:57:49;3.60;;;1.93;;
11865;SDS011;5992;52.744;6.898;2023-07-13T20:01:15;2.40;;;1.93;;
11865;SDS011;5992;52.744;6.898;2023-07-13T20:04:40;3.83;;;2.10;;